Nearby METAR Reports

 

KSJC - San Jose, California, USA
Distance from station: NE 9mi, 14km
Updated: Fri, 19-Jul-2024 7:53am PDT
Clear
Clear
 Wind from NW
Wind: NW 3 mph, 6 km/h
Temperature: 66°F, 19°C
Dew Point: 57°F, 14°C
Humidity: 73%
Barometer: 30.01 inHg, 1016.3 hPa
Clouds: Clear
Visibility: 10 miles, 16 km
2024/07/19 14:53 KSJC 191453Z 31003KT 10SM CLR 19/14 A3001 RMK AO2 SLP161 T01940139 53007
KPAO - Palo Alto, California, USA
Distance from station: NNW 14mi, 23km
Updated: Fri, 19-Jul-2024 8:47am PDT
Clear
Clear
 Wind from varies
Wind: varies 5 mph, 7 km/h
Temperature: 64°F, 18°C
Dew Point: 57°F, 14°C
Humidity: 78%
Barometer: 30.02 inHg, 1016.6 hPa
Clouds: Clear
Visibility: 10 miles, 16 km
2024/07/19 15:47 KPAO 191547Z VRB04KT 10SM SKC 18/14 A3002
 
KRHV - San Jose/Reid, California, USA
Distance from station: ENE 12mi, 19km
Updated: Fri, 19-Jul-2024 8:51am PDT
Clear
Clear
 Wind from calm
Wind: Calm
Temperature: 70°F, 21°C
Dew Point: 55°F, 13°C
Humidity: 60%
Barometer: 30.02 inHg, 1016.6 hPa
Clouds: Clear
Visibility: 10 miles, 16 km
2024/07/19 15:51 KRHV 191551Z 00000KT 10SM SKC 21/13 A3002
KOAK - Oakland, California, USA
Distance from station: NNW 31mi, 50km
Updated: Fri, 19-Jul-2024 7:53am PDT
Few Clouds
Few Clouds
 Wind from calm
Wind: Calm
Temperature: 63°F, 17°C
Dew Point: 57°F, 14°C
Humidity: 83%
Barometer: 30.02 inHg, 1016.6 hPa
Clouds: Few Clouds
Visibility: 10 miles, 16 km
Cloud details: Few Clouds 900 ft
Few Clouds 16000 ft
2024/07/19 14:53 KOAK 191453Z 00000KT 10SM FEW009 FEW160 17/14 A3002 RMK AO2 SLP164 T01720139 53007
 
KSQL - San Carlos Airpo, California, USA
Distance from station: NW 21mi, 34km
Updated: Fri, 19-Jul-2024 8:47am PDT
Clear
Clear
 Wind from calm
Wind: Calm
Temperature: 64°F, 18°C
Dew Point: 57°F, 14°C
Humidity: 78%
Barometer: 30.02 inHg, 1016.6 hPa
Clouds: Clear
Visibility: 10 miles, 16 km
2024/07/19 15:47 KSQL 191547Z 00000KT 10SM CLR 18/14 A3002
KSFO - San Francisco, California, USA
Distance from station: NW 30mi, 49km
Updated: Fri, 19-Jul-2024 7:56am PDT
Few Clouds
Few Clouds
 Wind from WNW
Wind: WNW 5 mph, 7 km/h
Temperature: 59°F, 15°C
Dew Point: 54°F, 12°C
Humidity: 82%
Barometer: 30.01 inHg, 1016.3 hPa
Clouds: Few Clouds
Visibility: 10 miles, 16 km
Cloud details: Few Clouds 600 ft
Few Clouds 16000 ft
2024/07/19 14:56 KSFO 191456Z 29004KT 10SM FEW006 FEW160 15/12 A3001 RMK AO2 SLP162 T01500117 53007
 
KE16 - San Martin, California, USA
Distance from station: ESE 27mi, 43km
Updated: Fri, 19-Jul-2024 8:35am PDT
Clear
Clear
 Wind from calm
Wind: Calm
Temperature: 66°F, 19°C
Dew Point: 54°F, 12°C
Humidity: 64%
Barometer: 30.04 inHg, 1017.3 hPa
Clouds: Clear
Visibility: 10 miles, 16 km
2024/07/19 15:35 KE16 191535Z AUTO 00000KT 10SM CLR 19/12 A3004 RMK AO2 PWINO PNO
KWVI - Watsonville, California, USA
Distance from station: SSE 27mi, 44km
Updated: Fri, 19-Jul-2024 8:14am PDT
Mist, Overcast
Mist, Overcast
 Wind from E
Wind: E 3 mph, 6 km/h
Temperature: 55°F, 13°C
Dew Point: 55°F, 13°C
Humidity: 100%
Barometer: 30.03 inHg, 1016.9 hPa
Summary: Mist
Clouds: Overcast
Visibility: 4 miles, 6 km
Cloud details: Overcast 200 ft
2024/07/19 15:14 KWVI 191514Z AUTO 08003KT 4SM BR OVC002 13/13 A3003 RMK AO2 T01330128
 
KHAF - Half Moon Bay, California, USA
Distance from station: WNW 31mi, 50km
Updated: Fri, 19-Jul-2024 8:35am PDT
Mist, Overcast
Mist, Overcast
 Wind from varies
Wind: varies 3 mph, 6 km/h
Temperature: 55°F, 13°C
Dew Point: 55°F, 13°C
Humidity: 100%
Barometer: 30.04 inHg, 1017.3 hPa
Summary: Mist
Clouds: Overcast
Visibility: 6 miles, 10 km
Cloud details: Overcast 400 ft
2024/07/19 15:35 KHAF 191535Z AUTO VRB03KT 6SM BR OVC004 13/13 A3004 RMK AO2
KHWD - Hayward, California, USA
Distance from station: N 28mi, 44km
Updated: Fri, 19-Jul-2024 7:54am PDT
Clear
Clear
 Wind from calm
Wind: Calm
Temperature: 64°F, 18°C
Dew Point: 55°F, 13°C
Humidity: 73%
Barometer: 30.01 inHg, 1016.3 hPa
Clouds: Clear
Visibility: 10 miles, 16 km
2024/07/19 14:54 KHWD 191454Z 00000KT 10SM CLR 18/13 A3001 RMK AO2 SLP170 T01780133
 
KLVK - Livermore, California, USA
Distance from station: NNE 31mi, 51km
Updated: Fri, 19-Jul-2024 7:53am PDT
Clear
Clear
 Wind from calm
Wind: Calm
Temperature: 68°F, 20°C
Dew Point: 54°F, 12°C
Humidity: 60%
Barometer: 30.00 inHg, 1015.9 hPa
Clouds: Clear
Visibility: 10 miles, 16 km
2024/07/19 14:53 KLVK 191453Z AUTO 00000KT 10SM CLR 20/12 A3000 RMK AO2 SLP154 T02000117 53009